EXS7RH EGNM-LPFR
Flight info
| Callsign | EXS7RH |
|---|---|
| Flight time | 2h 38m |
| Altitude | 37000 |
| Route | POL P17 BARTN N58 KARNO DCT ALHUP DCT ABWIV/N0452F380 DCT PACSE DCT SIDHO DCT TONQU DCT SALCO/N0452F370 DCT EBOMO DCT BALDA/N0457F390 DCT ABUPI DCT MOMAS DCT SOTEX |
| Aircraft | B738/M-SDE2E3FGHIRWXY/LB1 |
Departure
| Time | 2026-05-04 07:54 |
|---|---|
| Airport | Leeds Bradford Airport (EGNM) |
Arrival
| Time | 2026-05-04 10:32 |
|---|---|
| Airport | Faro - Gago Coutinho International Airport (LPFR) |
| Time | Latitude | Longitude | Altitude | Speed | Heading |
|---|---|---|---|---|---|
| 2026-05-04 07:44 | 53.86877 | -1.65619 | 664 ft | 0 kts | 1° |
| 2026-05-04 07:45 | 53.86857 | -1.65620 | 664 ft | 4 kts | 1° |
| 2026-05-04 07:46 | 53.86836 | -1.65621 | 663 ft | 4 kts | 350° |
| 2026-05-04 07:46 | 53.86818 | -1.65603 | 662 ft | 4 kts | 285° |
| 2026-05-04 07:46 | 53.86815 | -1.65583 | 661 ft | 4 kts | 271° |
| 2026-05-04 07:46 | 53.86816 | -1.65600 | 661 ft | 0 kts | 271° |
| 2026-05-04 07:49 | 53.86817 | -1.65679 | 663 ft | 9 kts | 272° |
| 2026-05-04 07:49 | 53.86813 | -1.65784 | 664 ft | 9 kts | 266° |
| 2026-05-04 07:49 | 53.86813 | -1.65886 | 664 ft | 9 kts | 271° |
| 2026-05-04 07:50 | 53.86815 | -1.66002 | 665 ft | 10 kts | 272° |
| 2026-05-04 07:50 | 53.86834 | -1.66113 | 664 ft | 10 kts | 310° |
| 2026-05-04 07:50 | 53.86884 | -1.66191 | 665 ft | 10 kts | 319° |
| 2026-05-04 07:50 | 53.86932 | -1.66268 | 665 ft | 9 kts | 311° |
| 2026-05-04 07:51 | 53.86950 | -1.66307 | 667 ft | 0 kts | 303° |
| 2026-05-04 07:51 | 53.86952 | -1.66312 | 667 ft | 2 kts | 303° |
| 2026-05-04 07:51 | 53.86976 | -1.66380 | 671 ft | 8 kts | 300° |
| 2026-05-04 07:51 | 53.86994 | -1.66471 | 672 ft | 9 kts | 271° |
| 2026-05-04 07:52 | 53.86963 | -1.66591 | 669 ft | 11 kts | 264° |
| 2026-05-04 07:52 | 53.87004 | -1.66693 | 674 ft | 12 kts | 317° |
| 2026-05-04 07:52 | 53.87076 | -1.66803 | 679 ft | 16 kts | 318° |
| 2026-05-04 07:52 | 53.87173 | -1.66951 | 680 ft | 20 kts | 317° |
| 2026-05-04 07:53 | 53.87295 | -1.66992 | 688 ft | 21 kts | 2° |
| 2026-05-04 07:54 | 53.84905 | -1.63567 | 1896 ft | 165 kts | 138° |
| 2026-05-04 07:55 | 53.84033 | -1.62288 | 2740 ft | 169 kts | 137° |
| 2026-05-04 07:55 | 53.83093 | -1.60872 | 3104 ft | 202 kts | 140° |
| 2026-05-04 07:55 | 53.81702 | -1.59838 | 3346 ft | 230 kts | 175° |
| 2026-05-04 07:55 | 53.80122 | -1.60504 | 3808 ft | 244 kts | 213° |
| 2026-05-04 07:56 | 53.79026 | -1.62667 | 4469 ft | 247 kts | 249° |
| 2026-05-04 07:56 | 53.78672 | -1.65601 | 4965 ft | 263 kts | 266° |
| 2026-05-04 07:56 | 53.78487 | -1.68731 | 5755 ft | 271 kts | 264° |
| 2026-05-04 07:56 | 53.78245 | -1.71915 | 6615 ft | 274 kts | 263° |
| 2026-05-04 07:57 | 53.77970 | -1.75127 | 7504 ft | 277 kts | 262° |
| 2026-05-04 07:57 | 53.77664 | -1.78342 | 8423 ft | 279 kts | 261° |
| 2026-05-04 07:57 | 53.77341 | -1.81586 | 9345 ft | 281 kts | 261° |
| 2026-05-04 07:57 | 53.77010 | -1.84868 | 10251 ft | 285 kts | 261° |
| 2026-05-04 07:58 | 53.76664 | -1.88272 | 10664 ft | 306 kts | 261° |
| 2026-05-04 07:58 | 53.76289 | -1.91965 | 10874 ft | 330 kts | 261° |
| 2026-05-04 07:58 | 53.75890 | -1.95867 | 11455 ft | 340 kts | 261° |
| 2026-05-04 07:58 | 53.75489 | -1.99767 | 12222 ft | 344 kts | 261° |
| 2026-05-04 07:59 | 53.75076 | -2.03768 | 13011 ft | 347 kts | 261° |
| 2026-05-04 07:59 | 53.74574 | -2.07789 | 13785 ft | 352 kts | 251° |
| 2026-05-04 07:59 | 53.73328 | -2.11354 | 14447 ft | 359 kts | 229° |
| 2026-05-04 07:59 | 53.71410 | -2.14093 | 15153 ft | 362 kts | 216° |
| 2026-05-04 08:00 | 53.69340 | -2.16552 | 15904 ft | 365 kts | 215° |
| 2026-05-04 08:00 | 53.67238 | -2.18997 | 16558 ft | 370 kts | 215° |
| 2026-05-04 08:00 | 53.65100 | -2.21488 | 17222 ft | 375 kts | 215° |
| 2026-05-04 08:02 | 53.49629 | -2.39807 | 21271 ft | 403 kts | 215° |
| 2026-05-04 08:02 | 53.47322 | -2.42516 | 21831 ft | 406 kts | 213° |
| 2026-05-04 08:02 | 53.44858 | -2.44895 | 22314 ft | 410 kts | 206° |
| 2026-05-04 08:03 | 53.42289 | -2.47017 | 22878 ft | 413 kts | 205° |
| 2026-05-04 08:03 | 53.39685 | -2.49091 | 23426 ft | 416 kts | 205° |
| 2026-05-04 08:03 | 53.37060 | -2.51176 | 23853 ft | 420 kts | 205° |
| 2026-05-04 08:03 | 53.34411 | -2.53297 | 24245 ft | 424 kts | 205° |
| 2026-05-04 08:04 | 53.31743 | -2.55453 | 24626 ft | 428 kts | 205° |
| 2026-05-04 08:04 | 53.29042 | -2.57651 | 24956 ft | 433 kts | 205° |
| 2026-05-04 08:04 | 53.26311 | -2.59881 | 25254 ft | 439 kts | 205° |
| 2026-05-04 08:04 | 53.23557 | -2.62132 | 25657 ft | 442 kts | 205° |
| 2026-05-04 08:05 | 53.20782 | -2.64399 | 26066 ft | 445 kts | 205° |
| 2026-05-04 08:05 | 53.17988 | -2.66678 | 26442 ft | 448 kts | 205° |
| 2026-05-04 08:05 | 53.15212 | -2.68939 | 26772 ft | 452 kts | 205° |
| 2026-05-04 08:05 | 53.12332 | -2.71280 | 27108 ft | 456 kts | 204° |
| 2026-05-04 08:06 | 53.09507 | -2.73573 | 27449 ft | 459 kts | 204° |
| 2026-05-04 08:06 | 53.06623 | -2.75910 | 27781 ft | 463 kts | 204° |
| 2026-05-04 08:06 | 53.03715 | -2.78263 | 28107 ft | 466 kts | 204° |
| 2026-05-04 08:06 | 53.00789 | -2.80628 | 28419 ft | 469 kts | 204° |
| 2026-05-04 08:08 | 52.79161 | -2.92259 | 30820 ft | 473 kts | 185° |
| 2026-05-04 08:08 | 52.75910 | -2.92978 | 31265 ft | 470 kts | 186° |
| 2026-05-04 08:10 | 52.50395 | -2.95828 | 34296 ft | 455 kts | 181° |
| 2026-05-04 08:11 | 52.47274 | -2.96076 | 34593 ft | 453 kts | 181° |
| 2026-05-04 08:11 | 52.41022 | -2.96589 | 35291 ft | 448 kts | 182° |
| 2026-05-04 08:11 | 52.37893 | -2.96850 | 35432 ft | 451 kts | 182° |
| 2026-05-04 08:12 | 52.34757 | -2.97109 | 35614 ft | 452 kts | 182° |
| 2026-05-04 08:12 | 52.31604 | -2.97368 | 35783 ft | 454 kts | 182° |
| 2026-05-04 08:12 | 52.28442 | -2.97626 | 35951 ft | 455 kts | 181° |
| 2026-05-04 08:12 | 52.25318 | -2.97881 | 36231 ft | 454 kts | 182° |
| 2026-05-04 08:13 | 52.22175 | -2.98136 | 36579 ft | 450 kts | 182° |
| 2026-05-04 08:13 | 52.19016 | -2.98393 | 36902 ft | 448 kts | 182° |
| 2026-05-04 08:13 | 52.15936 | -2.98644 | 37053 ft | 450 kts | 182° |
| 2026-05-04 08:13 | 52.12801 | -2.98899 | 37187 ft | 451 kts | 182° |
| 2026-05-04 08:14 | 52.09660 | -2.99153 | 37399 ft | 451 kts | 182° |
| 2026-05-04 08:14 | 52.06527 | -2.99407 | 37657 ft | 450 kts | 182° |
| 2026-05-04 08:14 | 52.03397 | -2.99660 | 37852 ft | 450 kts | 182° |
| 2026-05-04 08:16 | 51.81569 | -3.02113 | 38057 ft | 453 kts | 188° |
| 2026-05-04 08:16 | 51.75302 | -3.03507 | 38054 ft | 455 kts | 188° |
| 2026-05-04 08:17 | 51.69012 | -3.04864 | 38041 ft | 454 kts | 187° |
| 2026-05-04 08:17 | 51.62791 | -3.06163 | 38029 ft | 446 kts | 187° |
| 2026-05-04 08:19 | 51.38411 | -3.11192 | 38026 ft | 444 kts | 187° |
| 2026-05-04 08:20 | 51.32246 | -3.12455 | 38019 ft | 449 kts | 187° |
| 2026-05-04 08:20 | 51.26054 | -3.13718 | 38005 ft | 453 kts | 187° |
| 2026-05-04 08:21 | 51.19773 | -3.14997 | 38013 ft | 456 kts | 187° |
| 2026-05-04 08:21 | 51.13511 | -3.16269 | 37990 ft | 449 kts | 187° |
| 2026-05-04 08:22 | 51.07352 | -3.17517 | 38003 ft | 444 kts | 187° |
| 2026-05-04 08:24 | 50.82935 | -3.22433 | 37997 ft | 444 kts | 187° |
| 2026-05-04 08:24 | 50.76804 | -3.23659 | 37996 ft | 446 kts | 187° |
| 2026-05-04 08:25 | 50.70632 | -3.24897 | 37996 ft | 447 kts | 187° |
| 2026-05-04 08:25 | 50.64438 | -3.26142 | 37996 ft | 449 kts | 187° |
| 2026-05-04 08:27 | 50.39557 | -3.31109 | 38000 ft | 451 kts | 187° |
| 2026-05-04 08:28 | 50.33389 | -3.32862 | 38011 ft | 450 kts | 192° |
| 2026-05-04 08:28 | 50.27287 | -3.35024 | 37995 ft | 449 kts | 193° |
| 2026-05-04 08:29 | 50.21205 | -3.37155 | 37997 ft | 447 kts | 192° |
| 2026-05-04 08:31 | 49.96993 | -3.45277 | 37999 ft | 442 kts | 192° |
| 2026-05-04 08:33 | 49.73016 | -3.53247 | 37999 ft | 440 kts | 193° |
| 2026-05-04 08:35 | 49.49359 | -3.63293 | 38003 ft | 442 kts | 195° |
| 2026-05-04 08:35 | 49.43444 | -3.65780 | 38005 ft | 443 kts | 195° |
| 2026-05-04 08:37 | 49.22506 | -3.74529 | 38000 ft | 447 kts | 195° |
| 2026-05-04 08:38 | 49.16499 | -3.77026 | 37999 ft | 447 kts | 194° |
| 2026-05-04 08:38 | 49.10497 | -3.79513 | 37999 ft | 447 kts | 194° |
| 2026-05-04 08:40 | 48.86570 | -3.89371 | 37998 ft | 444 kts | 194° |
| 2026-05-04 08:41 | 48.80601 | -3.91815 | 37996 ft | 444 kts | 194° |
| 2026-05-04 08:41 | 48.74642 | -3.94249 | 37989 ft | 444 kts | 195° |
| 2026-05-04 08:42 | 48.69685 | -3.96269 | 37999 ft | 444 kts | 195° |
| 2026-05-04 08:42 | 48.63711 | -3.98698 | 37996 ft | 444 kts | 195° |
| 2026-05-04 08:43 | 48.57733 | -4.01122 | 37992 ft | 445 kts | 195° |
| 2026-05-04 08:43 | 48.51743 | -4.03546 | 37996 ft | 446 kts | 195° |
| 2026-05-04 08:44 | 48.45739 | -4.05970 | 37993 ft | 446 kts | 195° |
| 2026-05-04 08:46 | 48.21717 | -4.15606 | 37993 ft | 447 kts | 195° |
| 2026-05-04 08:46 | 48.15706 | -4.18003 | 37992 ft | 447 kts | 195° |
| 2026-05-04 08:47 | 48.09692 | -4.20395 | 37996 ft | 446 kts | 195° |
| 2026-05-04 08:47 | 48.03701 | -4.22773 | 37991 ft | 445 kts | 195° |
| 2026-05-04 08:48 | 47.97724 | -4.25139 | 38003 ft | 444 kts | 195° |
| 2026-05-04 08:48 | 47.91760 | -4.27495 | 37998 ft | 443 kts | 195° |
| 2026-05-04 08:49 | 47.85846 | -4.29826 | 37988 ft | 442 kts | 195° |
| 2026-05-04 08:50 | 47.65170 | -4.38215 | 37987 ft | 438 kts | 195° |
| 2026-05-04 08:51 | 47.59293 | -4.40614 | 37992 ft | 438 kts | 195° |
| 2026-05-04 08:51 | 47.53414 | -4.43004 | 37991 ft | 438 kts | 195° |
| 2026-05-04 08:52 | 47.47535 | -4.45387 | 37994 ft | 438 kts | 195° |
| 2026-05-04 08:52 | 47.41656 | -4.47765 | 37990 ft | 438 kts | 195° |
| 2026-05-04 08:54 | 47.18141 | -4.57221 | 37992 ft | 438 kts | 195° |
| 2026-05-04 08:55 | 47.12251 | -4.59576 | 37991 ft | 439 kts | 195° |
| 2026-05-04 08:55 | 47.06391 | -4.61913 | 37990 ft | 439 kts | 195° |
| 2026-05-04 09:01 | 46.44706 | -4.86201 | 37991 ft | 437 kts | 195° |
| 2026-05-04 09:01 | 46.38836 | -4.88483 | 37996 ft | 437 kts | 195° |
| 2026-05-04 09:02 | 46.32960 | -4.90762 | 38000 ft | 437 kts | 195° |
| 2026-05-04 09:02 | 46.27105 | -4.93028 | 38001 ft | 438 kts | 195° |
| 2026-05-04 09:03 | 46.21218 | -4.95300 | 37998 ft | 438 kts | 195° |
| 2026-05-04 09:03 | 46.15327 | -4.97570 | 37996 ft | 439 kts | 195° |
| 2026-05-04 09:04 | 46.09428 | -4.99837 | 38000 ft | 439 kts | 195° |
| 2026-05-04 09:04 | 46.03521 | -5.02103 | 37991 ft | 439 kts | 195° |
| 2026-05-04 09:05 | 45.97614 | -5.04363 | 38005 ft | 439 kts | 195° |
| 2026-05-04 09:05 | 45.91709 | -5.06618 | 38001 ft | 439 kts | 195° |
| 2026-05-04 09:06 | 45.85841 | -5.08854 | 38003 ft | 439 kts | 195° |
| 2026-05-04 09:08 | 45.62260 | -5.17789 | 38006 ft | 438 kts | 195° |
| 2026-05-04 09:08 | 45.56363 | -5.20012 | 38008 ft | 438 kts | 195° |
| 2026-05-04 09:09 | 45.50458 | -5.22232 | 38004 ft | 438 kts | 195° |
| 2026-05-04 09:09 | 45.44563 | -5.24444 | 38008 ft | 438 kts | 195° |
| 2026-05-04 09:10 | 45.38712 | -5.26635 | 38011 ft | 438 kts | 195° |
| 2026-05-04 09:10 | 45.32824 | -5.28835 | 38012 ft | 437 kts | 195° |
| 2026-05-04 09:11 | 45.26925 | -5.31034 | 38013 ft | 437 kts | 195° |
| 2026-05-04 09:11 | 45.21072 | -5.33212 | 38017 ft | 437 kts | 195° |
| 2026-05-04 09:12 | 45.15170 | -5.35403 | 38056 ft | 440 kts | 195° |
| 2026-05-04 09:12 | 45.12208 | -5.36501 | 38233 ft | 440 kts | 195° |
| 2026-05-04 09:14 | 44.91438 | -5.44167 | 39022 ft | 443 kts | 195° |
| 2026-05-04 09:14 | 44.85486 | -5.46353 | 39015 ft | 441 kts | 196° |
| 2026-05-04 09:15 | 44.79589 | -5.48514 | 39020 ft | 440 kts | 196° |
| 2026-05-04 09:15 | 44.73673 | -5.50678 | 39021 ft | 439 kts | 196° |
| 2026-05-04 09:17 | 44.47977 | -5.63290 | 39028 ft | 435 kts | 205° |
| 2026-05-04 09:18 | 44.42447 | -5.66744 | 39031 ft | 435 kts | 205° |
| 2026-05-04 09:18 | 44.36898 | -5.70167 | 39035 ft | 436 kts | 205° |
| 2026-05-04 09:19 | 44.31340 | -5.73577 | 39033 ft | 437 kts | 205° |
| 2026-05-04 09:19 | 44.25769 | -5.76988 | 39035 ft | 437 kts | 205° |
| 2026-05-04 09:20 | 44.20189 | -5.80397 | 39039 ft | 438 kts | 205° |
| 2026-05-04 09:20 | 44.14594 | -5.83808 | 39038 ft | 439 kts | 205° |
| 2026-05-04 09:21 | 44.09029 | -5.87195 | 39039 ft | 439 kts | 205° |
| 2026-05-04 09:21 | 44.03426 | -5.90598 | 39038 ft | 439 kts | 205° |
| 2026-05-04 09:22 | 43.97823 | -5.93994 | 39046 ft | 439 kts | 205° |
| 2026-05-04 09:22 | 43.92212 | -5.97387 | 39046 ft | 439 kts | 205° |
| 2026-05-04 09:23 | 43.86610 | -6.00768 | 39032 ft | 439 kts | 205° |
| 2026-05-04 09:23 | 43.81057 | -6.04113 | 39038 ft | 438 kts | 205° |
| 2026-05-04 09:25 | 43.58735 | -6.17490 | 39047 ft | 436 kts | 205° |
| 2026-05-04 09:26 | 43.53169 | -6.20809 | 39049 ft | 436 kts | 205° |
| 2026-05-04 09:26 | 43.47626 | -6.24107 | 39052 ft | 436 kts | 205° |
| 2026-05-04 09:27 | 43.42044 | -6.27422 | 39042 ft | 437 kts | 205° |
| 2026-05-04 09:27 | 43.36468 | -6.30726 | 39043 ft | 437 kts | 205° |
| 2026-05-04 09:28 | 43.30880 | -6.34031 | 39039 ft | 437 kts | 205° |
| 2026-05-04 09:28 | 43.25293 | -6.37329 | 39022 ft | 437 kts | 205° |
| 2026-05-04 09:29 | 43.19706 | -6.40619 | 39034 ft | 437 kts | 205° |
| 2026-05-04 09:29 | 43.14155 | -6.43883 | 39038 ft | 437 kts | 205° |
| 2026-05-04 09:30 | 43.08563 | -6.47165 | 39047 ft | 437 kts | 205° |
| 2026-05-04 09:30 | 43.02981 | -6.50433 | 39033 ft | 436 kts | 205° |
| 2026-05-04 09:31 | 42.97393 | -6.53698 | 39040 ft | 436 kts | 205° |
| 2026-05-04 09:31 | 42.91798 | -6.56963 | 39044 ft | 437 kts | 205° |
| 2026-05-04 09:32 | 42.86218 | -6.60211 | 39045 ft | 437 kts | 205° |
| 2026-05-04 09:34 | 42.64826 | -6.72604 | 39050 ft | 436 kts | 205° |
| 2026-05-04 09:34 | 42.59235 | -6.75828 | 39046 ft | 436 kts | 205° |
| 2026-05-04 09:35 | 42.53651 | -6.79041 | 39043 ft | 435 kts | 205° |
| 2026-05-04 09:35 | 42.48066 | -6.82248 | 39052 ft | 435 kts | 205° |
| 2026-05-04 09:37 | 42.25740 | -6.95010 | 39046 ft | 437 kts | 205° |
| 2026-05-04 09:38 | 42.20166 | -6.98181 | 39051 ft | 438 kts | 205° |
| 2026-05-04 09:38 | 42.14531 | -7.01380 | 39061 ft | 439 kts | 205° |
| 2026-05-04 09:39 | 42.08896 | -7.04574 | 39048 ft | 439 kts | 205° |
| 2026-05-04 09:39 | 42.03257 | -7.07763 | 39050 ft | 440 kts | 205° |
| 2026-05-04 09:40 | 41.97613 | -7.10949 | 39029 ft | 440 kts | 206° |
| 2026-05-04 09:40 | 41.91971 | -7.14127 | 39046 ft | 439 kts | 206° |
| 2026-05-04 09:42 | 41.69228 | -7.25730 | 39047 ft | 441 kts | 197° |
| 2026-05-04 09:43 | 41.63259 | -7.27621 | 39058 ft | 441 kts | 197° |
| 2026-05-04 09:43 | 41.57293 | -7.29535 | 39057 ft | 441 kts | 198° |
| 2026-05-04 09:44 | 41.51329 | -7.31489 | 39045 ft | 441 kts | 198° |
| 2026-05-04 09:46 | 41.27513 | -7.39344 | 39057 ft | 441 kts | 198° |
| 2026-05-04 09:46 | 41.21543 | -7.41303 | 39066 ft | 441 kts | 198° |
| 2026-05-04 09:47 | 41.15578 | -7.43257 | 39064 ft | 442 kts | 198° |
| 2026-05-04 09:49 | 40.91742 | -7.51027 | 39080 ft | 441 kts | 198° |
| 2026-05-04 09:51 | 40.70952 | -7.57758 | 39079 ft | 438 kts | 198° |
| 2026-05-04 09:51 | 40.65025 | -7.59669 | 39069 ft | 438 kts | 199° |
| 2026-05-04 09:52 | 40.59139 | -7.61563 | 39080 ft | 437 kts | 199° |
| 2026-05-04 09:52 | 40.53226 | -7.63463 | 39084 ft | 437 kts | 199° |
| 2026-05-04 09:53 | 40.47305 | -7.65362 | 39091 ft | 437 kts | 198° |
| 2026-05-04 09:53 | 40.41389 | -7.67256 | 39090 ft | 438 kts | 198° |
| 2026-05-04 09:54 | 40.35458 | -7.69151 | 39094 ft | 439 kts | 198° |
| 2026-05-04 09:54 | 40.29510 | -7.71048 | 39084 ft | 440 kts | 198° |
| 2026-05-04 09:55 | 40.23560 | -7.72943 | 39082 ft | 440 kts | 198° |
| 2026-05-04 09:55 | 40.17637 | -7.74824 | 39068 ft | 440 kts | 199° |
| 2026-05-04 09:56 | 40.11495 | -7.75543 | 39086 ft | 449 kts | 184° |
| 2026-05-04 09:56 | 40.05246 | -7.75292 | 39079 ft | 449 kts | 184° |
| 2026-05-04 09:57 | 39.99002 | -7.75088 | 39062 ft | 449 kts | 184° |
| 2026-05-04 09:57 | 39.92755 | -7.74915 | 39067 ft | 449 kts | 184° |
| 2026-05-04 09:58 | 39.86518 | -7.74753 | 39066 ft | 448 kts | 184° |
| 2026-05-04 09:58 | 39.80284 | -7.74593 | 39070 ft | 448 kts | 184° |
| 2026-05-04 10:00 | 39.55440 | -7.73951 | 39087 ft | 445 kts | 185° |
| 2026-05-04 10:04 | 39.12501 | -7.72846 | 37264 ft | 436 kts | 186° |
| 2026-05-04 10:04 | 39.09448 | -7.72776 | 36376 ft | 442 kts | 186° |
| 2026-05-04 10:04 | 39.06395 | -7.72704 | 35688 ft | 445 kts | 187° |
| 2026-05-04 10:04 | 39.03268 | -7.72623 | 35158 ft | 443 kts | 187° |
| 2026-05-04 10:05 | 39.00230 | -7.72543 | 34685 ft | 441 kts | 187° |
| 2026-05-04 10:05 | 38.97182 | -7.72461 | 34244 ft | 437 kts | 187° |
| 2026-05-04 10:05 | 38.94148 | -7.72380 | 33738 ft | 434 kts | 187° |
| 2026-05-04 10:05 | 38.91141 | -7.72301 | 33269 ft | 430 kts | 187° |
| 2026-05-04 10:06 | 38.88159 | -7.72224 | 32816 ft | 426 kts | 187° |
| 2026-05-04 10:06 | 38.85210 | -7.72148 | 32368 ft | 422 kts | 187° |
| 2026-05-04 10:06 | 38.82289 | -7.72073 | 31964 ft | 418 kts | 187° |
| 2026-05-04 10:08 | 38.65238 | -7.71648 | 29408 ft | 399 kts | 186° |
| 2026-05-04 10:08 | 38.62475 | -7.71577 | 28932 ft | 395 kts | 187° |
| 2026-05-04 10:08 | 38.59727 | -7.71510 | 28574 ft | 401 kts | 187° |
| 2026-05-04 10:08 | 38.56875 | -7.71453 | 28140 ft | 417 kts | 187° |
| 2026-05-04 10:09 | 38.53985 | -7.71392 | 27684 ft | 422 kts | 187° |
| 2026-05-04 10:09 | 38.51055 | -7.71317 | 27209 ft | 419 kts | 186° |
| 2026-05-04 10:09 | 38.48159 | -7.71237 | 26766 ft | 414 kts | 186° |
| 2026-05-04 10:09 | 38.45286 | -7.71158 | 26327 ft | 411 kts | 186° |
| 2026-05-04 10:10 | 38.42442 | -7.71082 | 25893 ft | 408 kts | 186° |
| 2026-05-04 10:10 | 38.39614 | -7.71009 | 25436 ft | 405 kts | 186° |
| 2026-05-04 10:10 | 38.36804 | -7.70937 | 25019 ft | 403 kts | 186° |
| 2026-05-04 10:10 | 38.34012 | -7.70868 | 24581 ft | 401 kts | 186° |
| 2026-05-04 10:11 | 38.31227 | -7.70799 | 24172 ft | 399 kts | 186° |
| 2026-05-04 10:11 | 38.28449 | -7.70732 | 23726 ft | 398 kts | 186° |
| 2026-05-04 10:11 | 38.25682 | -7.70664 | 23230 ft | 397 kts | 186° |
| 2026-05-04 10:11 | 38.22927 | -7.70596 | 22766 ft | 395 kts | 185° |
| 2026-05-04 10:12 | 38.20187 | -7.70527 | 22322 ft | 392 kts | 185° |
| 2026-05-04 10:12 | 38.17470 | -7.70459 | 21887 ft | 389 kts | 185° |
| 2026-05-04 10:12 | 38.14774 | -7.70392 | 21468 ft | 387 kts | 185° |
| 2026-05-04 10:12 | 38.12090 | -7.70326 | 21050 ft | 384 kts | 185° |
| 2026-05-04 10:13 | 38.09457 | -7.70261 | 20639 ft | 382 kts | 185° |
| 2026-05-04 10:13 | 38.06806 | -7.70196 | 20228 ft | 381 kts | 184° |
| 2026-05-04 10:13 | 38.04165 | -7.70131 | 19818 ft | 379 kts | 184° |
| 2026-05-04 10:13 | 38.01532 | -7.70066 | 19414 ft | 377 kts | 184° |
| 2026-05-04 10:14 | 37.98909 | -7.70002 | 19004 ft | 376 kts | 184° |
| 2026-05-04 10:14 | 37.96296 | -7.69938 | 18598 ft | 375 kts | 184° |
| 2026-05-04 10:16 | 37.78548 | -7.69497 | 15690 ft | 352 kts | 184° |
| 2026-05-04 10:16 | 37.76102 | -7.69438 | 15306 ft | 351 kts | 184° |
| 2026-05-04 10:16 | 37.73701 | -7.69381 | 14915 ft | 349 kts | 184° |
| 2026-05-04 10:16 | 37.71240 | -7.69322 | 14526 ft | 348 kts | 184° |
| 2026-05-04 10:17 | 37.68854 | -7.69264 | 14147 ft | 347 kts | 184° |
| 2026-05-04 10:17 | 37.66438 | -7.69205 | 13741 ft | 346 kts | 183° |
| 2026-05-04 10:19 | 37.50194 | -7.68802 | 11038 ft | 308 kts | 182° |
| 2026-05-04 10:19 | 37.48060 | -7.68751 | 10707 ft | 306 kts | 182° |
| 2026-05-04 10:19 | 37.45933 | -7.68700 | 10405 ft | 303 kts | 183° |
| 2026-05-04 10:19 | 37.43855 | -7.68650 | 10277 ft | 294 kts | 183° |
| 2026-05-04 10:20 | 37.41842 | -7.68600 | 10138 ft | 284 kts | 183° |
| 2026-05-04 10:20 | 37.39891 | -7.68551 | 9864 ft | 279 kts | 183° |
| 2026-05-04 10:20 | 37.37957 | -7.68506 | 9567 ft | 277 kts | 183° |
| 2026-05-04 10:20 | 37.36031 | -7.68461 | 9260 ft | 276 kts | 182° |
| 2026-05-04 10:21 | 37.34140 | -7.68414 | 8969 ft | 274 kts | 182° |
| 2026-05-04 10:21 | 37.32242 | -7.68368 | 8691 ft | 272 kts | 182° |
| 2026-05-04 10:21 | 37.30352 | -7.68324 | 8399 ft | 271 kts | 181° |
| 2026-05-04 10:21 | 37.28468 | -7.68279 | 8104 ft | 270 kts | 181° |
| 2026-05-04 10:22 | 37.25332 | -7.68204 | 7625 ft | 268 kts | 181° |
| 2026-05-04 10:22 | 37.23496 | -7.68159 | 7350 ft | 267 kts | 182° |
| 2026-05-04 10:22 | 37.21612 | -7.68115 | 7044 ft | 266 kts | 181° |
| 2026-05-04 10:23 | 37.19787 | -7.68069 | 6763 ft | 266 kts | 181° |
| 2026-05-04 10:23 | 37.17910 | -7.68026 | 6460 ft | 267 kts | 181° |
| 2026-05-04 10:25 | 37.07207 | -7.67767 | 5066 ft | 215 kts | 181° |
| 2026-05-04 10:25 | 37.05745 | -7.67731 | 4952 ft | 208 kts | 181° |
| 2026-05-04 10:25 | 37.04303 | -7.67698 | 4882 ft | 206 kts | 181° |
| 2026-05-04 10:25 | 37.02883 | -7.67664 | 4806 ft | 202 kts | 181° |
| 2026-05-04 10:26 | 37.01485 | -7.67630 | 4699 ft | 200 kts | 181° |
| 2026-05-04 10:26 | 37.00073 | -7.67597 | 4447 ft | 206 kts | 181° |
| 2026-05-04 10:26 | 36.98682 | -7.67911 | 4169 ft | 201 kts | 214° |
| 2026-05-04 10:26 | 36.97933 | -7.69223 | 4189 ft | 185 kts | 263° |
| 2026-05-04 10:27 | 36.97966 | -7.70845 | 3992 ft | 190 kts | 278° |
| 2026-05-04 10:27 | 36.98106 | -7.72491 | 3737 ft | 189 kts | 280° |
| 2026-05-04 10:27 | 36.98295 | -7.74077 | 3483 ft | 184 kts | 282° |
| 2026-05-04 10:27 | 36.98504 | -7.75635 | 3236 ft | 179 kts | 283° |
| 2026-05-04 10:28 | 36.98713 | -7.77149 | 3013 ft | 174 kts | 283° |
| 2026-05-04 10:28 | 36.98917 | -7.78614 | 2775 ft | 169 kts | 283° |
| 2026-05-04 10:28 | 36.99116 | -7.80037 | 2542 ft | 162 kts | 283° |
| 2026-05-04 10:28 | 36.99306 | -7.81393 | 2327 ft | 155 kts | 283° |
| 2026-05-04 10:29 | 36.99488 | -7.82696 | 2141 ft | 152 kts | 283° |
| 2026-05-04 10:29 | 36.99673 | -7.84009 | 1916 ft | 153 kts | 283° |
| 2026-05-04 10:29 | 36.99857 | -7.85325 | 1719 ft | 154 kts | 283° |
| 2026-05-04 10:29 | 37.00041 | -7.86641 | 1506 ft | 152 kts | 283° |
| 2026-05-04 10:30 | 37.00216 | -7.87892 | 1331 ft | 139 kts | 283° |
| 2026-05-04 10:30 | 37.00380 | -7.89053 | 1140 ft | 133 kts | 283° |
| 2026-05-04 10:30 | 37.00541 | -7.90195 | 957 ft | 134 kts | 282° |
| 2026-05-04 10:30 | 37.00700 | -7.91329 | 776 ft | 132 kts | 283° |
| 2026-05-04 10:31 | 37.00860 | -7.92479 | 579 ft | 138 kts | 282° |
| 2026-05-04 10:31 | 37.01034 | -7.93665 | 410 ft | 140 kts | 283° |
| 2026-05-04 10:32 | 37.01644 | -7.97848 | 19 ft | 14 kts | 333° |
| 2026-05-04 10:33 | 37.01726 | -7.97801 | 19 ft | 14 kts | 55° |
| 2026-05-04 10:33 | 37.01764 | -7.97694 | 19 ft | 13 kts | 76° |
| 2026-05-04 10:33 | 37.01767 | -7.97583 | 19 ft | 13 kts | 96° |
| 2026-05-04 10:33 | 37.01758 | -7.97475 | 19 ft | 12 kts | 74° |
| 2026-05-04 10:34 | 37.01813 | -7.97395 | 19 ft | 11 kts | 40° |
| 2026-05-04 10:34 | 37.01843 | -7.97319 | 19 ft | 10 kts | 93° |
| 2026-05-04 10:34 | 37.01832 | -7.97234 | 19 ft | 10 kts | 101° |
| 2026-05-04 10:34 | 37.01820 | -7.97151 | 19 ft | 10 kts | 99° |
| 2026-05-04 10:35 | 37.01810 | -7.97071 | 19 ft | 9 kts | 99° |
| 2026-05-04 10:35 | 37.01824 | -7.97009 | 21 ft | 8 kts | 22° |
| 2026-05-04 10:35 | 37.01876 | -7.96996 | 19 ft | 8 kts | 10° |
| 2026-05-04 10:35 | 37.01925 | -7.96986 | 21 ft | 3 kts | 9° |
| 2026-05-04 10:36 | 37.01930 | -7.96985 | 20 ft | 0 kts | 9° |